sensor_id;sensor_type;location;lat;lon;timestamp;pressure;altitude;pressure_sealevel;temperature;humidity
13476;BME280;6810;63.824;20.288;2023-06-14T03:01:09;102235.28;;;13.38;55.21
13476;BME280;6810;63.824;20.288;2023-06-14T03:03:57;102222.03;;;13.35;55.91
13476;BME280;6810;63.824;20.288;2023-06-14T03:06:44;102225.22;;;13.43;56.60
13476;BME280;6810;63.824;20.288;2023-06-14T03:09:32;102218.91;;;13.44;56.45
13476;BME280;6810;63.824;20.288;2023-06-14T03:12:20;102198.13;;;13.30;57.01
13476;BME280;6810;63.824;20.288;2023-06-14T03:15:09;102222.25;;;13.49;57.43
13476;BME280;6810;63.824;20.288;2023-06-14T03:17:56;102223.91;;;13.51;57.40
13476;BME280;6810;63.824;20.288;2023-06-14T03:20:43;102226.31;;;13.57;56.95
13476;BME280;6810;63.824;20.288;2023-06-14T03:23:31;102224.38;;;13.61;56.90
13476;BME280;6810;63.824;20.288;2023-06-14T03:26:18;102220.66;;;13.63;57.13
13476;BME280;6810;63.824;20.288;2023-06-14T03:29:06;102222.34;;;13.66;57.09
13476;BME280;6810;63.824;20.288;2023-06-14T03:32:00;102218.56;;;13.70;57.75
13476;BME280;6810;63.824;20.288;2023-06-14T03:34:48;102215.66;;;13.74;57.92
13476;BME280;6810;63.824;20.288;2023-06-14T03:37:35;102220.09;;;13.75;57.07
13476;BME280;6810;63.824;20.288;2023-06-14T03:40:23;102216.19;;;13.82;57.57
13476;BME280;6810;63.824;20.288;2023-06-14T03:43:11;102219.59;;;13.86;57.11
13476;BME280;6810;63.824;20.288;2023-06-14T03:45:58;102222.97;;;13.89;57.39
13476;BME280;6810;63.824;20.288;2023-06-14T03:48:45;102221.91;;;13.93;57.40
13476;BME280;6810;63.824;20.288;2023-06-14T03:51:32;102211.19;;;13.93;57.84
13476;BME280;6810;63.824;20.288;2023-06-14T03:54:22;102213.72;;;13.97;57.81
13476;BME280;6810;63.824;20.288;2023-06-14T03:57:31;102223.13;;;14.05;57.74
13476;BME280;6810;63.824;20.288;2023-06-14T04:00:18;102231.75;;;14.12;58.13
13476;BME280;6810;63.824;20.288;2023-06-14T04:03:05;102226.16;;;14.16;57.88
13476;BME280;6810;63.824;20.288;2023-06-14T04:05:53;102216.91;;;14.22;57.79
13476;BME280;6810;63.824;20.288;2023-06-14T04:08:41;102225.56;;;14.28;57.67
13476;BME280;6810;63.824;20.288;2023-06-14T04:11:28;102219.97;;;14.33;57.50
13476;BME280;6810;63.824;20.288;2023-06-14T04:14:15;102155.50;;;13.98;57.41
13476;BME280;6810;63.824;20.288;2023-06-14T04:17:02;102218.38;;;14.47;56.84
13476;BME280;6810;63.824;20.288;2023-06-14T04:19:49;102215.38;;;14.53;57.25
13476;BME280;6810;63.824;20.288;2023-06-14T04:22:37;102212.28;;;14.61;56.71
13476;BME280;6810;63.824;20.288;2023-06-14T04:25:24;102215.59;;;14.66;57.22
13476;BME280;6810;63.824;20.288;2023-06-14T04:28:12;102204.84;;;14.66;56.88
13476;BME280;6810;63.824;20.288;2023-06-14T04:31:01;102215.75;;;14.80;56.92
13476;BME280;6810;63.824;20.288;2023-06-14T04:33:49;102220.63;;;14.89;56.40
13476;BME280;6810;63.824;20.288;2023-06-14T04:36:36;102225.59;;;14.96;56.48
13476;BME280;6810;63.824;20.288;2023-06-14T04:39:32;102222.50;;;15.04;56.02
13476;BME280;6810;63.824;20.288;2023-06-14T04:42:19;102230.19;;;15.11;55.76
13476;BME280;6810;63.824;20.288;2023-06-14T04:45:09;102234.28;;;15.18;55.79
13476;BME280;6810;63.824;20.288;2023-06-14T04:47:56;102234.84;;;15.25;55.01
13476;BME280;6810;63.824;20.288;2023-06-14T04:50:43;102233.47;;;15.33;54.91
13476;BME280;6810;63.824;20.288;2023-06-14T04:53:30;102229.59;;;15.39;54.59
13476;BME280;6810;63.824;20.288;2023-06-14T04:56:17;102232.56;;;15.50;54.46
13476;BME280;6810;63.824;20.288;2023-06-14T04:59:05;102216.44;;;15.50;53.93
13476;BME280;6810;63.824;20.288;2023-06-14T05:01:52;102228.09;;;15.66;53.90
13476;BME280;6810;63.824;20.288;2023-06-14T05:04:39;102186.13;;;15.48;53.90
13476;BME280;6810;63.824;20.288;2023-06-14T05:07:27;102231.66;;;15.82;53.52
13476;BME280;6810;63.824;20.288;2023-06-14T05:10:14;102223.25;;;15.88;53.35
13476;BME280;6810;63.824;20.288;2023-06-14T05:13:01;102217.53;;;15.94;53.74
13476;BME280;6810;63.824;20.288;2023-06-14T05:15:49;102223.00;;;16.08;53.61
13476;BME280;6810;63.824;20.288;2023-06-14T05:18:36;102209.53;;;16.08;53.47
13476;BME280;6810;63.824;20.288;2023-06-14T05:21:23;102215.78;;;16.24;54.13
13476;BME280;6810;63.824;20.288;2023-06-14T05:24:10;102220.56;;;16.35;53.68
13476;BME280;6810;63.824;20.288;2023-06-14T05:26:58;102227.16;;;16.45;53.66
13476;BME280;6810;63.824;20.288;2023-06-14T05:29:45;102225.69;;;16.55;52.78
13476;BME280;6810;63.824;20.288;2023-06-14T05:32:32;102230.41;;;16.65;52.64
13476;BME280;6810;63.824;20.288;2023-06-14T05:35:19;102225.44;;;16.73;53.26
13476;BME280;6810;63.824;20.288;2023-06-14T05:38:06;102223.22;;;16.80;52.25
13476;BME280;6810;63.824;20.288;2023-06-14T05:40:53;102220.88;;;16.89;51.97
13476;BME280;6810;63.824;20.288;2023-06-14T05:43:40;102223.88;;;16.99;52.43
13476;BME280;6810;63.824;20.288;2023-06-14T05:46:27;102232.28;;;17.08;51.67
13476;BME280;6810;63.824;20.288;2023-06-14T05:49:14;102225.25;;;17.20;51.06
13476;BME280;6810;63.824;20.288;2023-06-14T08:01:50;102216.22;;;21.25;37.01
13476;BME280;6810;63.824;20.288;2023-06-14T08:04:17;102221.78;;;21.35;37.43
13476;BME280;6810;63.824;20.288;2023-06-14T08:06:44;102217.69;;;21.40;37.57
13476;BME280;6810;63.824;20.288;2023-06-14T08:09:12;102211.66;;;21.48;37.36
13476;BME280;6810;63.824;20.288;2023-06-14T08:11:40;102215.63;;;21.55;37.50
13476;BME280;6810;63.824;20.288;2023-06-14T08:14:08;102208.94;;;21.59;36.43
13476;BME280;6810;63.824;20.288;2023-06-14T08:16:35;102206.13;;;21.71;36.95
13476;BME280;6810;63.824;20.288;2023-06-14T08:19:02;102213.53;;;21.80;36.54
13476;BME280;6810;63.824;20.288;2023-06-14T08:21:30;102214.88;;;21.86;36.39
13476;BME280;6810;63.824;20.288;2023-06-14T08:24:00;102207.34;;;21.89;36.26
13476;BME280;6810;63.824;20.288;2023-06-14T08:26:27;102205.97;;;21.95;35.73
13476;BME280;6810;63.824;20.288;2023-06-14T08:28:58;102205.47;;;22.01;36.07
13476;BME280;6810;63.824;20.288;2023-06-14T08:31:25;102198.81;;;22.05;35.99
13476;BME280;6810;63.824;20.288;2023-06-14T08:33:54;102204.44;;;22.13;36.17
13476;BME280;6810;63.824;20.288;2023-06-14T08:36:21;102207.66;;;22.18;36.08
13476;BME280;6810;63.824;20.288;2023-06-14T08:38:49;102192.09;;;22.20;35.86
13476;BME280;6810;63.824;20.288;2023-06-14T08:41:23;102195.19;;;22.27;36.05
13476;BME280;6810;63.824;20.288;2023-06-14T08:43:52;102167.41;;;22.12;35.78
13476;BME280;6810;63.824;20.288;2023-06-14T08:46:20;102195.84;;;22.40;37.68
13476;BME280;6810;63.824;20.288;2023-06-14T08:48:48;102204.38;;;22.46;38.52
13476;BME280;6810;63.824;20.288;2023-06-14T08:51:18;102197.66;;;22.50;39.67
13476;BME280;6810;63.824;20.288;2023-06-14T08:53:49;102197.56;;;22.52;39.50
13476;BME280;6810;63.824;20.288;2023-06-14T08:56:19;102201.03;;;22.54;40.09
13476;BME280;6810;63.824;20.288;2023-06-14T08:58:47;102200.03;;;22.55;39.88
13476;BME280;6810;63.824;20.288;2023-06-14T09:01:14;102194.59;;;22.55;40.02
13476;BME280;6810;63.824;20.288;2023-06-14T09:03:44;102196.78;;;22.61;39.95
13476;BME280;6810;63.824;20.288;2023-06-14T09:06:11;102176.69;;;22.52;40.03
13476;BME280;6810;63.824;20.288;2023-06-14T09:08:43;102186.41;;;22.66;40.22
13476;BME280;6810;63.824;20.288;2023-06-14T09:11:12;102190.69;;;22.68;40.36
13476;BME280;6810;63.824;20.288;2023-06-14T09:13:42;102186.00;;;22.70;40.54
13476;BME280;6810;63.824;20.288;2023-06-14T09:16:09;102177.97;;;22.69;40.73
13476;BME280;6810;63.824;20.288;2023-06-14T09:18:38;102189.91;;;22.77;40.87
13476;BME280;6810;63.824;20.288;2023-06-14T09:21:08;102188.53;;;22.83;41.21
13476;BME280;6810;63.824;20.288;2023-06-14T09:23:46;102194.44;;;22.88;41.73
13476;BME280;6810;63.824;20.288;2023-06-14T09:26:16;102187.47;;;22.95;40.74
13476;BME280;6810;63.824;20.288;2023-06-14T09:28:44;102188.91;;;22.99;40.97
13476;BME280;6810;63.824;20.288;2023-06-14T09:31:16;102184.06;;;23.02;40.88
13476;BME280;6810;63.824;20.288;2023-06-14T09:33:46;102180.97;;;23.07;40.64
13476;BME280;6810;63.824;20.288;2023-06-14T09:36:21;102184.16;;;23.12;40.19
13476;BME280;6810;63.824;20.288;2023-06-14T09:38:56;102172.25;;;23.13;39.72
13476;BME280;6810;63.824;20.288;2023-06-14T09:41:34;102174.44;;;23.19;40.17
13476;BME280;6810;63.824;20.288;2023-06-14T09:44:03;102168.84;;;23.20;39.75
13476;BME280;6810;63.824;20.288;2023-06-14T09:46:36;102174.53;;;23.28;39.28
13476;BME280;6810;63.824;20.288;2023-06-14T09:49:04;102171.72;;;23.39;39.26
13476;BME280;6810;63.824;20.288;2023-06-14T09:51:32;102169.97;;;23.68;38.62
13476;BME280;6810;63.824;20.288;2023-06-14T09:54:02;102165.53;;;24.07;37.33
13476;BME280;6810;63.824;20.288;2023-06-14T09:58:58;102160.53;;;24.79;36.80
13476;BME280;6810;63.824;20.288;2023-06-14T10:01:35;102164.63;;;25.11;36.33
13476;BME280;6810;63.824;20.288;2023-06-14T10:04:06;102161.59;;;25.33;35.68
13476;BME280;6810;63.824;20.288;2023-06-14T10:06:40;102152.16;;;25.55;35.52
13476;BME280;6810;63.824;20.288;2023-06-14T10:09:09;102151.66;;;25.69;34.72
13476;BME280;6810;63.824;20.288;2023-06-14T10:11:36;102141.25;;;25.73;34.09
13476;BME280;6810;63.824;20.288;2023-06-14T10:14:05;102151.84;;;25.85;33.57
13476;BME280;6810;63.824;20.288;2023-06-14T10:16:38;102148.66;;;25.90;33.73
13476;BME280;6810;63.824;20.288;2023-06-14T10:19:07;102145.44;;;25.94;33.08
13476;BME280;6810;63.824;20.288;2023-06-14T10:21:49;102139.25;;;25.92;33.31
13476;BME280;6810;63.824;20.288;2023-06-14T10:24:30;102149.34;;;26.01;32.72
13476;BME280;6810;63.824;20.288;2023-06-14T10:26:59;102109.66;;;25.88;33.15
13476;BME280;6810;63.824;20.288;2023-06-14T10:29:28;102117.94;;;26.05;32.88
13476;BME280;6810;63.824;20.288;2023-06-14T10:32:00;102137.06;;;26.23;32.05
13476;BME280;6810;63.824;20.288;2023-06-14T10:34:29;102138.66;;;26.25;32.27
13476;BME280;6810;63.824;20.288;2023-06-14T10:39:31;102146.78;;;26.35;31.76
13476;BME280;6810;63.824;20.288;2023-06-14T10:42:01;102142.16;;;26.35;31.77
13476;BME280;6810;63.824;20.288;2023-06-14T10:46:59;102141.69;;;26.40;32.19
13476;BME280;6810;63.824;20.288;2023-06-14T10:49:49;102146.84;;;26.43;31.46
13476;BME280;6810;63.824;20.288;2023-06-14T10:52:22;102141.91;;;26.46;31.62
13476;BME280;6810;63.824;20.288;2023-06-14T10:55:03;102138.38;;;26.54;32.09
13476;BME280;6810;63.824;20.288;2023-06-14T10:57:33;102120.09;;;26.54;31.42
13476;BME280;6810;63.824;20.288;2023-06-14T11:00:17;102148.00;;;26.75;31.64
13476;BME280;6810;63.824;20.288;2023-06-14T11:05:24;102139.38;;;26.88;31.37
13476;BME280;6810;63.824;20.288;2023-06-14T11:08:12;102144.78;;;26.97;31.58
13476;BME280;6810;63.824;20.288;2023-06-14T11:10:44;102129.25;;;27.06;31.38
13476;BME280;6810;63.824;20.288;2023-06-14T11:13:16;102118.69;;;27.11;31.49
13476;BME280;6810;63.824;20.288;2023-06-14T11:15:45;102133.25;;;27.20;30.87
13476;BME280;6810;63.824;20.288;2023-06-14T11:18:13;102143.31;;;27.11;31.48
13476;BME280;6810;63.824;20.288;2023-06-14T11:20:40;102145.19;;;27.10;31.48
13476;BME280;6810;63.824;20.288;2023-06-14T11:23:07;102141.97;;;27.15;31.39
13476;BME280;6810;63.824;20.288;2023-06-14T11:25:34;102141.78;;;27.17;31.37
13476;BME280;6810;63.824;20.288;2023-06-14T11:28:02;102142.84;;;27.16;31.93
13476;BME280;6810;63.824;20.288;2023-06-14T11:30:29;102134.50;;;27.25;31.72
13476;BME280;6810;63.824;20.288;2023-06-14T11:32:57;102118.78;;;27.27;31.65
13476;BME280;6810;63.824;20.288;2023-06-14T11:35:26;102135.16;;;27.53;31.53
13476;BME280;6810;63.824;20.288;2023-06-14T11:37:56;102132.78;;;27.58;31.15
13476;BME280;6810;63.824;20.288;2023-06-14T11:40:24;102133.50;;;27.60;30.99
13476;BME280;6810;63.824;20.288;2023-06-14T11:43:00;102129.41;;;27.64;31.05
13476;BME280;6810;63.824;20.288;2023-06-14T11:45:28;102137.50;;;27.73;31.33
13476;BME280;6810;63.824;20.288;2023-06-14T11:47:56;102130.31;;;27.80;30.43
13476;BME280;6810;63.824;20.288;2023-06-14T11:50:24;102126.41;;;27.83;30.26
13476;BME280;6810;63.824;20.288;2023-06-14T11:52:59;102117.47;;;27.81;30.02
13476;BME280;6810;63.824;20.288;2023-06-14T11:55:38;102112.13;;;27.71;30.63
13476;BME280;6810;63.824;20.288;2023-06-14T11:58:06;102115.72;;;27.72;30.58
13476;BME280;6810;63.824;20.288;2023-06-14T12:00:35;102110.91;;;27.66;30.43
13476;BME280;6810;63.824;20.288;2023-06-14T12:03:03;102118.31;;;27.73;30.62
13476;BME280;6810;63.824;20.288;2023-06-14T12:05:33;102059.28;;;27.45;30.59
13476;BME280;6810;63.824;20.288;2023-06-14T12:08:03;102108.38;;;27.80;29.87
13476;BME280;6810;63.824;20.288;2023-06-14T12:10:39;102115.94;;;27.78;29.93
13476;BME280;6810;63.824;20.288;2023-06-14T12:13:06;102108.72;;;27.77;29.64
13476;BME280;6810;63.824;20.288;2023-06-14T12:15:34;102110.06;;;27.73;28.83
13476;BME280;6810;63.824;20.288;2023-06-14T12:18:05;102099.06;;;27.65;28.22
13476;BME280;6810;63.824;20.288;2023-06-14T12:20:33;102103.56;;;27.66;28.88
13476;BME280;6810;63.824;20.288;2023-06-14T12:23:03;102110.03;;;27.65;28.98
13476;BME280;6810;63.824;20.288;2023-06-14T12:25:35;102116.53;;;27.56;29.82
13476;BME280;6810;63.824;20.288;2023-06-14T12:28:07;102102.94;;;27.47;29.89
13476;BME280;6810;63.824;20.288;2023-06-14T12:30:36;102095.75;;;27.46;29.84
13476;BME280;6810;63.824;20.288;2023-06-14T12:33:03;102107.09;;;27.51;29.63
13476;BME280;6810;63.824;20.288;2023-06-14T12:35:31;102104.03;;;27.54;29.82
13476;BME280;6810;63.824;20.288;2023-06-14T12:37:58;102101.59;;;27.51;29.58
13476;BME280;6810;63.824;20.288;2023-06-14T12:40:25;102106.38;;;27.49;29.60
13476;BME280;6810;63.824;20.288;2023-06-14T12:42:53;102097.97;;;27.42;30.24
13476;BME280;6810;63.824;20.288;2023-06-14T12:45:20;102099.16;;;27.40;30.10
13476;BME280;6810;63.824;20.288;2023-06-14T12:47:47;102097.56;;;27.29;29.80
13476;BME280;6810;63.824;20.288;2023-06-14T12:50:14;102109.41;;;27.30;29.98
13476;BME280;6810;63.824;20.288;2023-06-14T12:52:42;102102.19;;;27.29;30.02
13476;BME280;6810;63.824;20.288;2023-06-14T12:55:09;102097.91;;;27.26;29.99
13476;BME280;6810;63.824;20.288;2023-06-14T12:57:36;102088.41;;;27.21;30.18
13476;BME280;6810;63.824;20.288;2023-06-14T13:00:06;102095.63;;;27.22;30.27
13476;BME280;6810;63.824;20.288;2023-06-14T13:02:34;102073.28;;;27.08;30.69
13476;BME280;6810;63.824;20.288;2023-06-14T13:05:02;102096.59;;;27.13;30.54
13476;BME280;6810;63.824;20.288;2023-06-14T13:07:31;102074.03;;;26.93;30.78
13476;BME280;6810;63.824;20.288;2023-06-14T13:09:58;102088.97;;;26.98;30.73
13476;BME280;6810;63.824;20.288;2023-06-14T13:12:26;102075.56;;;26.87;30.69
13476;BME280;6810;63.824;20.288;2023-06-14T13:14:53;102088.22;;;26.88;30.64
13476;BME280;6810;63.824;20.288;2023-06-14T13:17:20;102084.59;;;26.80;30.57
13476;BME280;6810;63.824;20.288;2023-06-14T13:19:47;102071.69;;;26.72;30.71
13476;BME280;6810;63.824;20.288;2023-06-14T13:22:14;102054.97;;;26.58;30.46
13476;BME280;6810;63.824;20.288;2023-06-14T13:24:41;102070.38;;;26.59;30.84
13476;BME280;6810;63.824;20.288;2023-06-14T13:27:08;102073.75;;;26.53;30.72
13476;BME280;6810;63.824;20.288;2023-06-14T13:29:35;102065.63;;;26.43;31.09
13476;BME280;6810;63.824;20.288;2023-06-14T13:32:03;102074.88;;;26.42;31.03
13476;BME280;6810;63.824;20.288;2023-06-14T13:34:31;102073.00;;;26.25;29.96
13476;BME280;6810;63.824;20.288;2023-06-14T13:36:58;102066.38;;;26.10;29.55
13476;BME280;6810;63.824;20.288;2023-06-14T13:39:28;102064.84;;;25.98;29.13
13476;BME280;6810;63.824;20.288;2023-06-14T13:41:55;102066.09;;;25.86;29.15
13476;BME280;6810;63.824;20.288;2023-06-14T13:44:22;102060.88;;;25.75;28.94
13476;BME280;6810;63.824;20.288;2023-06-14T13:47:09;102063.81;;;25.64;30.00
13476;BME280;6810;63.824;20.288;2023-06-14T13:50:09;102037.78;;;25.42;29.68
13476;BME280;6810;63.824;20.288;2023-06-14T13:53:09;102055.03;;;25.43;29.96
13476;BME280;6810;63.824;20.288;2023-06-14T13:55:56;102058.16;;;25.48;29.57
13476;BME280;6810;63.824;20.288;2023-06-14T13:58:43;102061.75;;;25.48;29.07
13476;BME280;6810;63.824;20.288;2023-06-14T14:01:30;102059.75;;;25.51;29.33
13476;BME280;6810;63.824;20.288;2023-06-14T14:04:17;102063.88;;;25.55;29.91
13476;BME280;6810;63.824;20.288;2023-06-14T14:07:05;102029.50;;;25.34;29.35
13476;BME280;6810;63.824;20.288;2023-06-14T14:09:53;102049.97;;;25.48;29.39
13476;BME280;6810;63.824;20.288;2023-06-14T14:12:40;101985.78;;;25.07;29.48
13476;BME280;6810;63.824;20.288;2023-06-14T14:15:27;102051.53;;;25.51;29.09
13476;BME280;6810;63.824;20.288;2023-06-14T14:18:14;102048.09;;;25.48;29.16
13476;BME280;6810;63.824;20.288;2023-06-14T14:21:02;102055.41;;;25.48;28.93
13476;BME280;6810;63.824;20.288;2023-06-14T14:23:49;102058.00;;;25.49;28.51
13476;BME280;6810;63.824;20.288;2023-06-14T14:26:36;102031.06;;;25.37;28.97
13476;BME280;6810;63.824;20.288;2023-06-14T14:29:23;102055.41;;;25.48;28.40
13476;BME280;6810;63.824;20.288;2023-06-14T14:32:10;102048.41;;;25.45;28.30
13476;BME280;6810;63.824;20.288;2023-06-14T14:34:57;102051.28;;;25.44;27.97
13476;BME280;6810;63.824;20.288;2023-06-14T14:37:45;102045.72;;;25.36;28.47
13476;BME280;6810;63.824;20.288;2023-06-14T14:40:32;102054.78;;;25.36;27.80
13476;BME280;6810;63.824;20.288;2023-06-14T14:43:19;102037.84;;;25.33;28.36
13476;BME280;6810;63.824;20.288;2023-06-14T14:46:06;102041.84;;;25.29;28.25
13476;BME280;6810;63.824;20.288;2023-06-14T14:48:53;102034.13;;;25.24;28.10
13476;BME280;6810;63.824;20.288;2023-06-14T14:51:40;102012.22;;;25.07;27.81
13476;BME280;6810;63.824;20.288;2023-06-14T14:54:47;102027.94;;;25.22;28.30
13476;BME280;6810;63.824;20.288;2023-06-14T14:57:34;101962.22;;;24.79;28.39
13476;BME280;6810;63.824;20.288;2023-06-14T15:00:21;102033.81;;;25.27;28.40
13476;BME280;6810;63.824;20.288;2023-06-14T15:03:08;102037.22;;;25.29;28.34
13476;BME280;6810;63.824;20.288;2023-06-14T15:05:55;102032.66;;;25.30;29.10
13476;BME280;6810;63.824;20.288;2023-06-14T15:08:42;102034.22;;;25.32;29.39
13476;BME280;6810;63.824;20.288;2023-06-14T15:11:30;102043.28;;;25.33;28.76
13476;BME280;6810;63.824;20.288;2023-06-14T15:14:17;102035.38;;;25.30;27.37
13476;BME280;6810;63.824;20.288;2023-06-14T15:17:04;102033.09;;;25.25;28.67
13476;BME280;6810;63.824;20.288;2023-06-14T15:19:52;102029.19;;;25.28;27.75
13476;BME280;6810;63.824;20.288;2023-06-14T15:22:40;102040.13;;;25.28;27.96
13476;BME280;6810;63.824;20.288;2023-06-14T15:25:28;102030.53;;;25.24;27.81
13476;BME280;6810;63.824;20.288;2023-06-14T15:28:16;102037.16;;;25.21;28.23
13476;BME280;6810;63.824;20.288;2023-06-14T15:31:03;102031.59;;;25.13;27.46
13476;BME280;6810;63.824;20.288;2023-06-14T15:33:50;102032.66;;;25.03;28.43
13476;BME280;6810;63.824;20.288;2023-06-14T15:36:37;102026.19;;;24.94;28.94
13476;BME280;6810;63.824;20.288;2023-06-14T15:39:24;102029.94;;;24.93;28.82
13476;BME280;6810;63.824;20.288;2023-06-14T15:42:11;102026.78;;;24.98;28.87
13476;BME280;6810;63.824;20.288;2023-06-14T15:44:58;102026.16;;;25.04;29.26
13476;BME280;6810;63.824;20.288;2023-06-14T15:47:45;102022.84;;;25.10;29.02
13476;BME280;6810;63.824;20.288;2023-06-14T15:50:32;102020.25;;;25.08;29.55
13476;BME280;6810;63.824;20.288;2023-06-14T15:53:19;102025.09;;;25.14;28.81
13476;BME280;6810;63.824;20.288;2023-06-14T15:56:07;102022.38;;;25.14;29.46
13476;BME280;6810;63.824;20.288;2023-06-14T15:58:54;102014.19;;;25.14;28.91
13476;BME280;6810;63.824;20.288;2023-06-14T16:01:41;102006.75;;;25.07;29.48
13476;BME280;6810;63.824;20.288;2023-06-14T16:04:28;102019.34;;;25.17;29.70
13476;BME280;6810;63.824;20.288;2023-06-14T16:07:17;102008.41;;;25.17;29.89
13476;BME280;6810;63.824;20.288;2023-06-14T16:10:04;102017.84;;;25.32;29.66
13476;BME280;6810;63.824;20.288;2023-06-14T16:12:51;102020.22;;;25.45;30.87
13476;BME280;6810;63.824;20.288;2023-06-14T16:15:38;101950.41;;;25.15;30.20
13476;BME280;6810;63.824;20.288;2023-06-14T16:18:25;102005.72;;;25.62;30.63
13476;BME280;6810;63.824;20.288;2023-06-14T16:21:12;102019.56;;;25.78;31.06
13476;BME280;6810;63.824;20.288;2023-06-14T16:23:59;101996.22;;;25.84;30.68
13476;BME280;6810;63.824;20.288;2023-06-14T16:26:47;102013.00;;;26.06;30.68
13476;BME280;6810;63.824;20.288;2023-06-14T16:29:35;101988.66;;;26.13;31.00
13476;BME280;6810;63.824;20.288;2023-06-14T16:32:22;102017.78;;;26.47;30.38
13476;BME280;6810;63.824;20.288;2023-06-14T16:35:09;102007.38;;;26.51;30.39
13476;BME280;6810;63.824;20.288;2023-06-14T16:37:56;102012.06;;;26.58;29.96
13476;BME280;6810;63.824;20.288;2023-06-14T16:40:43;101996.59;;;26.49;30.86
13476;BME280;6810;63.824;20.288;2023-06-14T16:43:30;102014.34;;;26.63;30.21
13476;BME280;6810;63.824;20.288;2023-06-14T16:46:30;102015.94;;;26.73;30.92
13476;BME280;6810;63.824;20.288;2023-06-14T16:49:18;101996.56;;;26.92;31.01
13476;BME280;6810;63.824;20.288;2023-06-14T16:52:05;102000.75;;;27.13;30.59
13476;BME280;6810;63.824;20.288;2023-06-14T16:54:52;101992.53;;;27.13;30.54
13476;BME280;6810;63.824;20.288;2023-06-14T16:57:40;102004.00;;;27.16;30.26
13476;BME280;6810;63.824;20.288;2023-06-14T17:00:27;101993.03;;;27.08;30.50
13476;BME280;6810;63.824;20.288;2023-06-14T17:03:13;102009.31;;;27.17;30.23
13476;BME280;6810;63.824;20.288;2023-06-14T17:06:01;102002.09;;;27.08;29.93
13476;BME280;6810;63.824;20.288;2023-06-14T17:08:48;101994.16;;;26.89;30.08
13476;BME280;6810;63.824;20.288;2023-06-14T17:11:35;101996.28;;;26.78;29.86
13476;BME280;6810;63.824;20.288;2023-06-14T17:14:23;101991.44;;;26.64;30.20
13476;BME280;6810;63.824;20.288;2023-06-14T17:17:10;102005.47;;;26.69;30.33
13476;BME280;6810;63.824;20.288;2023-06-14T17:19:57;102006.34;;;26.69;30.77
13476;BME280;6810;63.824;20.288;2023-06-14T17:22:44;102001.38;;;26.65;30.38
13476;BME280;6810;63.824;20.288;2023-06-14T17:25:31;102001.09;;;26.58;30.69
13476;BME280;6810;63.824;20.288;2023-06-14T17:28:19;101991.53;;;26.54;30.32
13476;BME280;6810;63.824;20.288;2023-06-14T17:31:06;101950.94;;;26.24;31.17
13476;BME280;6810;63.824;20.288;2023-06-14T17:33:53;101958.78;;;26.19;30.53
13476;BME280;6810;63.824;20.288;2023-06-14T17:36:40;101989.22;;;26.24;30.97
13476;BME280;6810;63.824;20.288;2023-06-14T17:39:27;101998.03;;;26.10;31.45
13476;BME280;6810;63.824;20.288;2023-06-14T17:42:14;101985.72;;;25.97;31.68
13476;BME280;6810;63.824;20.288;2023-06-14T17:45:01;101985.84;;;25.87;32.53
13476;BME280;6810;63.824;20.288;2023-06-14T17:47:48;101940.78;;;25.56;31.96
13476;BME280;6810;63.824;20.288;2023-06-14T17:50:35;102002.06;;;25.89;32.51
13476;BME280;6810;63.824;20.288;2023-06-14T17:53:22;101997.91;;;25.85;32.46
13476;BME280;6810;63.824;20.288;2023-06-14T17:56:09;101998.25;;;25.82;32.49
13476;BME280;6810;63.824;20.288;2023-06-14T17:58:56;101996.44;;;25.73;32.29
13476;BME280;6810;63.824;20.288;2023-06-14T18:01:43;101935.28;;;25.21;32.68
13476;BME280;6810;63.824;20.288;2023-06-14T18:04:30;101990.94;;;25.37;32.74
13476;BME280;6810;63.824;20.288;2023-06-14T18:07:18;101987.56;;;25.26;33.25
13476;BME280;6810;63.824;20.288;2023-06-14T18:10:05;101991.66;;;25.12;33.65
13476;BME280;6810;63.824;20.288;2023-06-14T18:12:52;101988.88;;;24.95;33.76
13476;BME280;6810;63.824;20.288;2023-06-14T18:15:40;101983.28;;;24.87;34.58
13476;BME280;6810;63.824;20.288;2023-06-14T18:18:27;101970.41;;;24.79;34.82
13476;BME280;6810;63.824;20.288;2023-06-14T18:21:14;101993.59;;;24.93;34.96
13476;BME280;6810;63.824;20.288;2023-06-14T18:24:01;101993.31;;;24.96;34.45
13476;BME280;6810;63.824;20.288;2023-06-14T18:26:48;101996.34;;;24.93;34.92
13476;BME280;6810;63.824;20.288;2023-06-14T18:29:35;102004.44;;;24.85;34.66
13476;BME280;6810;63.824;20.288;2023-06-14T18:32:22;101986.28;;;24.66;34.62
13476;BME280;6810;63.824;20.288;2023-06-14T18:35:09;101976.09;;;24.49;34.78
13476;BME280;6810;63.824;20.288;2023-06-14T18:37:56;102004.38;;;24.48;35.19
13476;BME280;6810;63.824;20.288;2023-06-14T18:40:43;101982.44;;;24.31;35.91
13476;BME280;6810;63.824;20.288;2023-06-14T18:43:30;101990.63;;;24.31;35.77
13476;BME280;6810;63.824;20.288;2023-06-14T18:46:17;102001.53;;;24.31;36.51
13476;BME280;6810;63.824;20.288;2023-06-14T18:49:04;102002.28;;;24.14;36.91
13476;BME280;6810;63.824;20.288;2023-06-14T18:51:51;101989.09;;;24.00;37.00
13476;BME280;6810;63.824;20.288;2023-06-14T18:54:39;101981.06;;;23.98;37.12
13476;BME280;6810;63.824;20.288;2023-06-14T18:57:28;102000.28;;;23.97;36.62
13476;BME280;6810;63.824;20.288;2023-06-14T19:00:16;101979.88;;;23.72;37.39
13476;BME280;6810;63.824;20.288;2023-06-14T19:03:03;102000.25;;;23.68;37.49
13476;BME280;6810;63.824;20.288;2023-06-14T19:05:50;102000.09;;;23.60;37.94
13476;BME280;6810;63.824;20.288;2023-06-14T19:08:37;101925.94;;;23.09;37.62
13476;BME280;6810;63.824;20.288;2023-06-14T19:11:25;101996.63;;;23.39;37.65
13476;BME280;6810;63.824;20.288;2023-06-14T19:14:12;101990.53;;;23.16;37.84
13476;BME280;6810;63.824;20.288;2023-06-14T19:16:58;101999.41;;;23.09;38.99